createdAt,value
2023-02-24T00:02:24.909Z,15.47
2023-02-24T00:04:54.690Z,12.57
2023-02-24T00:07:22.446Z,10.57
2023-02-24T00:09:50.227Z,8.43
2023-02-24T00:12:18.821Z,8.83
2023-02-24T00:14:46.923Z,6.33
2023-02-24T00:17:15.429Z,5.07
2023-02-24T00:19:44.518Z,4.83
2023-02-24T00:22:12.774Z,4.20
2023-02-24T00:24:40.518Z,4.60
2023-02-24T00:27:11.422Z,3.97
2023-02-24T00:29:40.195Z,4.67
2023-02-24T00:32:12.691Z,3.67
2023-02-24T00:34:41.252Z,3.53
2023-02-24T00:37:10.550Z,2.93
2023-02-24T00:39:41.504Z,3.33
2023-02-24T00:42:09.612Z,3.80
2023-02-24T00:44:42.624Z,3.80
2023-02-24T00:47:12.133Z,3.33
2023-02-24T00:49:42.606Z,3.30
2023-02-24T00:52:14.633Z,3.10
2023-02-24T00:54:43.222Z,2.73
2023-02-24T00:57:11.668Z,2.30
2023-02-24T00:59:39.724Z,2.90
2023-02-24T01:02:08.283Z,3.00
2023-02-24T01:04:37.631Z,2.23
2023-02-24T01:07:10.833Z,2.30
2023-02-24T01:09:42.264Z,2.43
2023-02-24T01:12:28.900Z,2.40
2023-02-24T01:14:56.581Z,3.00
2023-02-24T01:17:25.424Z,2.27
2023-02-24T01:19:55.140Z,2.70
2023-02-24T01:22:23.860Z,3.27
2023-02-24T01:24:53.319Z,2.67
2023-02-24T01:27:21.168Z,2.50
2023-02-24T01:29:49.885Z,2.43
2023-02-24T01:32:20.929Z,2.80
2023-02-24T01:34:53.745Z,2.90
2023-02-24T01:37:21.643Z,3.43
2023-02-24T01:39:50.083Z,2.37
2023-02-24T01:42:21.906Z,2.40
2023-02-24T01:45:24.793Z,3.47
2023-02-24T01:47:54.432Z,2.30
2023-02-24T01:50:26.372Z,2.53
2023-02-24T01:52:58.229Z,2.77
2023-02-24T01:55:34.507Z,1.97
2023-02-24T01:58:09.408Z,3.23
2023-02-24T02:00:45.180Z,2.60
2023-02-24T02:03:19.443Z,2.00
2023-02-24T02:05:48.634Z,2.50
2023-02-24T02:08:18.446Z,2.87
2023-02-24T02:10:47.568Z,2.10
2023-02-24T02:13:21.387Z,2.43
2023-02-24T02:16:03.023Z,2.70
2023-02-24T02:18:41.059Z,2.40
2023-02-24T02:21:52.717Z,2.57
2023-02-24T02:24:32.434Z,2.20
2023-02-24T02:27:21.363Z,2.07
2023-02-24T02:30:31.940Z,2.80
2023-02-24T02:33:36.248Z,2.30
2023-02-24T02:36:14.171Z,2.30
2023-02-24T02:38:54.289Z,2.80
2023-02-24T02:41:29.398Z,3.00
2023-02-24T02:44:07.510Z,2.43
2023-02-24T02:46:42.603Z,2.50
2023-02-24T02:49:18.952Z,2.60
2023-02-24T02:51:52.580Z,3.10
2023-02-24T02:54:28.238Z,2.50
2023-02-24T02:57:08.672Z,2.90
2023-02-24T02:59:41.835Z,2.77
2023-02-24T03:02:15.206Z,2.90
2023-02-24T03:04:47.434Z,2.50
2023-02-24T03:07:19.862Z,3.50
2023-02-24T03:09:52.478Z,2.50
2023-02-24T03:12:23.429Z,3.00
2023-02-24T03:14:56.732Z,2.77
2023-02-24T03:17:27.212Z,3.33
2023-02-24T03:20:02.103Z,2.60
2023-02-24T03:22:37.536Z,2.33
2023-02-24T03:25:06.495Z,2.40
2023-02-24T03:27:43.260Z,2.93
2023-02-24T03:30:17.069Z,2.27
2023-02-24T03:32:56.003Z,2.80
2023-02-24T03:35:27.484Z,2.60
2023-02-24T03:37:59.512Z,2.50
2023-02-24T03:40:35.969Z,2.50
2023-02-24T03:43:09.274Z,2.43
2023-02-24T03:45:39.046Z,2.73
2023-02-24T03:48:09.390Z,2.80
2023-02-24T03:50:39.677Z,2.50
2023-02-24T03:53:22.373Z,3.40
2023-02-24T03:56:00.564Z,2.63
2023-02-24T03:58:39.656Z,2.53
2023-02-24T04:01:15.651Z,3.17
2023-02-24T04:03:57.703Z,2.50
2023-02-24T04:06:35.232Z,3.43
2023-02-24T04:09:11.953Z,2.83
2023-02-24T04:11:46.239Z,2.37
2023-02-24T04:14:24.761Z,2.67
2023-02-24T04:17:01.031Z,2.50
2023-02-24T04:19:33.084Z,2.63
2023-02-24T04:22:01.937Z,2.37
2023-02-24T04:24:33.802Z,2.47
2023-02-24T04:27:06.546Z,3.30
2023-02-24T04:29:39.180Z,2.73
2023-02-24T04:32:09.786Z,2.47
2023-02-24T04:34:37.626Z,2.57
2023-02-24T04:37:05.644Z,2.90
2023-02-24T04:39:38.376Z,2.70
2023-02-24T04:42:06.593Z,2.57
2023-02-24T04:44:35.079Z,3.50
2023-02-24T04:47:03.954Z,3.27
2023-02-24T04:49:31.928Z,2.63
2023-02-24T04:51:59.652Z,3.30
2023-02-24T04:54:29.741Z,2.13
2023-02-24T04:56:59.376Z,2.40
2023-02-24T04:59:28.818Z,2.87
2023-02-24T05:02:01.298Z,2.97
2023-02-24T05:04:31.574Z,2.20
2023-02-24T05:06:59.804Z,2.07
2023-02-24T05:09:30.032Z,2.63
2023-02-24T05:12:00.436Z,2.27
2023-02-24T05:14:28.376Z,2.60
2023-02-24T05:17:00.450Z,2.07
2023-02-24T05:19:45.204Z,2.10
2023-02-24T05:22:14.561Z,2.10
2023-02-24T05:24:42.431Z,1.90
2023-02-24T05:27:11.744Z,2.60
2023-02-24T05:29:40.485Z,2.17
2023-02-24T05:32:08.704Z,2.03
2023-02-24T05:34:39.052Z,2.47
2023-02-24T05:37:10.727Z,1.57
2023-02-24T05:39:38.958Z,1.80
2023-02-24T05:42:07.554Z,2.20
2023-02-24T05:44:37.206Z,1.93
2023-02-24T05:47:05.631Z,2.00
2023-02-24T05:49:35.262Z,1.60
2023-02-24T05:52:07.634Z,2.10
2023-02-24T05:54:39.655Z,1.63
2023-02-24T05:57:11.587Z,2.17
2023-02-24T05:59:42.704Z,1.47
2023-02-24T06:02:12.446Z,2.00
2023-02-24T06:04:50.822Z,2.20
2023-02-24T06:07:22.921Z,2.00
2023-02-24T06:09:53.951Z,1.93
2023-02-24T06:12:23.376Z,1.90
2023-02-24T06:14:53.202Z,2.03
2023-02-24T06:17:22.965Z,1.60
2023-02-24T06:19:53.746Z,1.40
2023-02-24T06:22:23.635Z,1.67
2023-02-24T06:24:51.753Z,2.20
2023-02-24T06:27:21.725Z,1.87
2023-02-24T06:29:50.950Z,1.63
2023-02-24T06:32:23.722Z,1.80
2023-02-24T06:34:53.832Z,2.23
2023-02-24T06:37:22.716Z,2.47
2023-02-24T06:39:50.516Z,1.80
2023-02-24T06:42:18.420Z,2.17
2023-02-24T06:44:46.416Z,2.10
2023-02-24T06:47:17.823Z,1.70
2023-02-24T06:49:47.873Z,1.90
2023-02-24T06:52:19.020Z,1.83
2023-02-24T06:54:49.612Z,2.10
2023-02-24T06:57:18.245Z,1.87
2023-02-24T06:59:46.334Z,1.90
2023-02-24T07:02:14.303Z,2.10
2023-02-24T07:04:44.569Z,2.00
2023-02-24T07:07:15.117Z,2.10
2023-02-24T07:09:45.324Z,2.27
2023-02-24T07:12:15.668Z,2.10
2023-02-24T07:14:43.967Z,2.13
2023-02-24T07:17:14.682Z,1.73
2023-02-24T07:19:43.682Z,1.80
2023-02-24T07:22:16.862Z,2.00
2023-02-24T07:24:46.374Z,1.73
2023-02-24T07:27:22.352Z,2.13
2023-02-24T07:29:52.956Z,2.10
2023-02-24T07:32:22.361Z,1.70
2023-02-24T07:34:50.456Z,2.23
2023-02-24T07:37:20.704Z,2.10
2023-02-24T07:39:48.560Z,1.80
2023-02-24T07:42:16.304Z,1.80
2023-02-24T07:44:44.551Z,1.90
2023-02-24T07:47:12.491Z,1.67
2023-02-24T07:49:40.957Z,1.97
2023-02-24T07:52:10.300Z,1.97
2023-02-24T07:54:39.693Z,1.83
2023-02-24T07:57:13.504Z,3.03
2023-02-24T07:59:44.917Z,2.47
2023-02-24T08:02:13.720Z,2.33
2023-02-24T08:04:44.457Z,1.93
2023-02-24T08:07:14.581Z,3.10
2023-02-24T08:10:03.771Z,2.70
2023-02-24T08:12:31.535Z,2.30
2023-02-24T08:15:00.294Z,3.27
2023-02-24T08:17:28.743Z,2.93
2023-02-24T08:20:21.943Z,1.97
2023-02-24T08:22:52.924Z,2.17
2023-02-24T08:25:24.417Z,2.30
2023-02-24T08:28:12.500Z,1.80
2023-02-24T08:30:45.583Z,1.80
2023-02-24T08:33:18.855Z,2.40
2023-02-24T08:35:46.650Z,2.37
2023-02-24T08:38:17.117Z,2.20
2023-02-24T08:40:51.368Z,2.50
2023-02-24T08:43:34.350Z,2.10
2023-02-24T08:46:12.519Z,2.00
2023-02-24T08:48:42.572Z,2.07
2023-02-24T08:51:15.081Z,2.30
2023-02-24T08:53:43.879Z,2.43
2023-02-24T08:56:14.840Z,2.63
2023-02-24T08:58:47.393Z,2.17
2023-02-24T09:01:24.369Z,2.40
2023-02-24T09:03:54.956Z,2.60
2023-02-24T09:06:27.524Z,2.93
2023-02-24T09:09:11.932Z,2.03
2023-02-24T09:11:44.096Z,2.33
2023-02-24T09:14:26.188Z,2.10
2023-02-24T09:17:07.239Z,2.73
2023-02-24T09:20:03.710Z,2.23
2023-02-24T09:22:40.647Z,2.50
2023-02-24T09:25:21.886Z,2.27
2023-02-24T09:27:56.961Z,2.10
2023-02-24T09:30:50.937Z,2.20
2023-02-24T09:33:21.196Z,1.97
2023-02-24T09:36:10.669Z,2.50
2023-02-24T09:38:57.669Z,2.00
2023-02-24T09:41:33.793Z,2.00
2023-02-24T09:44:07.587Z,1.70
2023-02-24T09:46:53.855Z,2.17
2023-02-24T09:49:25.035Z,1.80
2023-02-24T09:52:00.662Z,1.80
2023-02-24T09:54:35.352Z,1.70
2023-02-24T09:57:16.695Z,2.43
2023-02-24T10:00:01.503Z,1.97
2023-02-24T10:02:44.196Z,2.73
2023-02-24T10:05:27.384Z,1.63
2023-02-24T10:07:58.095Z,1.60
2023-02-24T10:10:29.345Z,2.30
2023-02-24T10:13:14.765Z,1.77
2023-02-24T10:15:59.223Z,1.57
2023-02-24T10:18:33.136Z,2.23
2023-02-24T10:21:16.826Z,1.70
2023-02-24T10:23:59.403Z,1.63
2023-02-24T10:26:51.310Z,1.60
2023-02-24T10:29:39.401Z,2.27
2023-02-24T10:32:24.228Z,1.67
2023-02-24T10:34:52.319Z,2.07
2023-02-24T10:37:28.737Z,1.40
2023-02-24T10:39:58.938Z,1.77
2023-02-24T10:42:31.677Z,1.93
2023-02-24T10:45:17.839Z,1.90
2023-02-24T10:47:56.518Z,1.70
2023-02-24T10:50:29.781Z,1.53
2023-02-24T10:53:26.607Z,1.37
2023-02-24T10:56:15.030Z,1.60
2023-02-24T10:58:55.287Z,1.50
2023-02-24T11:01:40.905Z,1.70
2023-02-24T11:04:33.391Z,2.33
2023-02-24T11:07:09.854Z,1.80
2023-02-24T11:09:44.159Z,2.07
2023-02-24T11:12:35.212Z,1.90
2023-02-24T11:15:24.750Z,2.07
2023-02-24T11:17:56.961Z,2.27
2023-02-24T11:20:48.018Z,2.20
2023-02-24T11:23:20.319Z,2.20
2023-02-24T11:25:49.910Z,2.47
2023-02-24T11:28:44.552Z,1.60
2023-02-24T11:31:26.573Z,2.37
2023-02-24T11:34:04.197Z,2.00
2023-02-24T11:36:43.416Z,1.70
2023-02-24T11:39:31.593Z,2.00
2023-02-24T11:42:03.254Z,2.17
2023-02-24T11:44:35.587Z,2.20
2023-02-24T11:47:09.758Z,2.00
2023-02-24T11:49:42.348Z,2.20
2023-02-24T11:52:18.961Z,2.30
2023-02-24T11:54:51.466Z,2.47
2023-02-24T11:57:23.440Z,2.20
2023-02-24T12:00:00.394Z,2.30
2023-02-24T12:02:35.744Z,2.50
2023-02-24T12:05:11.793Z,2.43
2023-02-24T12:07:43.589Z,2.93
2023-02-24T12:10:19.334Z,2.63
2023-02-24T12:12:55.621Z,2.70
2023-02-24T12:15:26.326Z,2.63
2023-02-24T12:18:05.348Z,3.40
2023-02-24T12:20:38.464Z,3.10
2023-02-24T12:23:17.908Z,3.10
2023-02-24T12:25:55.873Z,3.70
2023-02-24T12:28:37.961Z,2.63
2023-02-24T12:31:18.003Z,3.00
2023-02-24T12:33:56.616Z,2.80
2023-02-24T12:36:43.564Z,2.97
2023-02-24T12:39:18.343Z,2.83
2023-02-24T12:42:08.056Z,2.77
2023-02-24T12:44:45.360Z,2.40
2023-02-24T12:47:16.703Z,2.53
2023-02-24T12:49:59.458Z,2.07
2023-02-24T12:52:35.907Z,2.57
2023-02-24T12:55:12.430Z,2.50
2023-02-24T12:57:49.270Z,2.63
2023-02-24T13:00:24.876Z,3.00
2023-02-24T13:03:01.222Z,2.40
2023-02-24T13:05:33.644Z,1.90
2023-02-24T13:08:22.284Z,2.30
2023-02-24T13:11:03.475Z,2.63
2023-02-24T13:13:38.256Z,2.70
2023-02-24T13:16:06.169Z,2.50
2023-02-24T13:18:36.457Z,2.60
2023-02-24T13:21:07.519Z,3.10
2023-02-24T13:23:36.201Z,2.70
2023-02-24T13:26:05.718Z,3.23
2023-02-24T13:28:38.317Z,2.90
2023-02-24T13:31:09.536Z,3.10
2023-02-24T13:33:40.145Z,3.50
2023-02-24T13:36:21.543Z,2.57
2023-02-24T13:38:51.775Z,3.30
2023-02-24T13:41:38.502Z,2.80
2023-02-24T13:44:24.140Z,3.10
2023-02-24T13:47:29.074Z,3.00
2023-02-24T13:50:12.442Z,2.90
2023-02-24T13:52:54.469Z,2.90
2023-02-24T13:55:33.086Z,3.13
2023-02-24T13:58:27.740Z,3.17
2023-02-24T14:01:07.049Z,2.60
2023-02-24T14:03:36.208Z,2.50
2023-02-24T14:06:05.239Z,3.13
2023-02-24T14:08:42.347Z,3.00
2023-02-24T14:11:14.412Z,2.80
2023-02-24T14:13:47.503Z,2.67
2023-02-24T14:16:20.785Z,3.00
2023-02-24T14:18:55.080Z,2.33
2023-02-24T14:21:24.909Z,2.77
2023-02-24T14:23:59.771Z,2.90
2023-02-24T14:26:28.656Z,2.53
2023-02-24T14:29:01.656Z,3.00
2023-02-24T14:31:31.231Z,3.00
2023-02-24T14:34:02.050Z,3.00
2023-02-24T14:36:33.439Z,3.13
2023-02-24T14:39:03.660Z,3.20
2023-02-24T14:41:31.512Z,3.17
2023-02-24T14:44:06.905Z,3.00
2023-02-24T14:46:34.943Z,2.97
2023-02-24T14:49:02.877Z,3.00
2023-02-24T14:51:34.890Z,2.83
2023-02-24T14:54:08.742Z,2.73
2023-02-24T14:56:37.983Z,3.07
2023-02-24T14:59:13.417Z,3.00
2023-02-24T15:01:46.595Z,3.00
2023-02-24T15:04:24.710Z,3.20
2023-02-24T15:06:53.007Z,3.83
2023-02-24T15:09:24.505Z,3.20
2023-02-24T15:11:55.899Z,3.40
2023-02-24T15:14:28.146Z,3.43
2023-02-24T15:17:00.127Z,3.37
2023-02-24T15:19:33.940Z,3.27
2023-02-24T15:22:01.709Z,3.97
2023-02-24T15:24:31.947Z,3.17
2023-02-24T15:27:01.525Z,3.30
2023-02-24T15:29:32.397Z,4.17
2023-02-24T15:32:01.478Z,3.63
2023-02-24T15:34:32.105Z,3.77
2023-02-24T15:37:03.171Z,3.27
2023-02-24T15:39:33.519Z,3.10
2023-02-24T15:42:09.404Z,3.63
2023-02-24T15:44:38.620Z,3.97
2023-02-24T15:47:22.367Z,3.90
2023-02-24T15:49:50.125Z,3.67
2023-02-24T15:52:23.110Z,4.17
2023-02-24T15:54:51.731Z,4.10
2023-02-24T15:57:21.144Z,3.83
2023-02-24T15:59:50.237Z,3.77
2023-02-24T16:02:20.064Z,3.80
2023-02-24T16:04:48.552Z,3.83
2023-02-24T16:07:21.928Z,4.30
2023-02-24T16:09:52.646Z,4.30
2023-02-24T16:12:23.613Z,4.40
2023-02-24T16:14:55.905Z,4.40
2023-02-24T16:17:31.630Z,4.73
2023-02-24T16:19:59.581Z,5.70
2023-02-24T16:22:28.183Z,4.60
2023-02-24T16:24:56.477Z,5.50
2023-02-24T16:27:26.038Z,5.33
2023-02-24T16:29:55.258Z,4.90
2023-02-24T16:32:25.850Z,5.43
2023-02-24T16:34:54.065Z,5.30
2023-02-24T16:37:23.393Z,4.80
2023-02-24T16:39:51.606Z,4.70
2023-02-24T16:42:21.776Z,4.93
2023-02-24T16:44:50.250Z,5.00
2023-02-24T16:47:23.234Z,5.03
2023-02-24T16:49:54.765Z,5.33
2023-02-24T16:52:23.434Z,4.87
2023-02-24T16:54:51.347Z,4.80
2023-02-24T16:57:19.156Z,4.67
2023-02-24T16:59:46.922Z,5.47
2023-02-24T17:02:21.345Z,5.50
2023-02-24T17:04:49.147Z,5.63
2023-02-24T17:07:19.000Z,5.57
2023-02-24T17:09:46.928Z,5.40
2023-02-24T17:12:21.348Z,5.97
2023-02-24T17:14:49.461Z,6.87
2023-02-24T17:17:17.408Z,6.40
2023-02-24T17:19:46.516Z,6.60
2023-02-24T17:22:14.317Z,7.73
2023-02-24T17:24:42.078Z,7.63
2023-02-24T17:27:10.310Z,7.33
2023-02-24T17:29:38.039Z,8.40
2023-02-24T17:32:06.024Z,7.53
2023-02-24T17:34:33.911Z,7.90
2023-02-24T17:37:03.063Z,8.77
2023-02-24T17:39:30.898Z,8.60
2023-02-24T17:41:58.701Z,9.17
2023-02-24T17:44:26.573Z,9.13
2023-02-24T17:46:54.381Z,8.67
2023-02-24T17:49:22.123Z,8.40
2023-02-24T17:51:49.930Z,7.87
2023-02-24T17:54:19.106Z,9.53
2023-02-24T17:56:46.861Z,9.87
2023-02-24T17:59:14.627Z,10.30
2023-02-24T18:01:42.434Z,9.83
2023-02-24T18:04:12.651Z,9.60
2023-02-24T18:06:40.451Z,10.70
2023-02-24T18:09:08.199Z,9.90
2023-02-24T18:11:37.512Z,11.07
2023-02-24T18:14:05.379Z,10.90
2023-02-24T18:16:33.115Z,11.37
2023-02-24T18:19:00.901Z,12.47
2023-02-24T18:21:29.195Z,12.40
2023-02-24T18:23:57.378Z,12.23
2023-02-24T18:26:26.317Z,11.87
2023-02-24T18:28:56.521Z,12.67
2023-02-24T18:31:26.346Z,12.87
2023-02-24T18:33:56.403Z,13.30
2023-02-24T18:36:25.113Z,12.50
2023-02-24T18:38:52.993Z,13.33
2023-02-24T18:41:23.424Z,13.27
2023-02-24T18:43:53.039Z,12.60
2023-02-24T18:46:23.358Z,13.00
2023-02-24T18:48:51.667Z,13.27
2023-02-24T18:51:21.408Z,13.10
2023-02-24T18:53:52.459Z,12.63
2023-02-24T18:56:23.388Z,13.20
2023-02-24T18:58:52.382Z,13.50
2023-02-24T19:01:23.919Z,13.37
2023-02-24T19:03:52.833Z,13.33
2023-02-24T19:06:22.184Z,13.20
2023-02-24T19:08:52.028Z,13.30
2023-02-24T19:11:21.462Z,13.97
2023-02-24T19:13:49.358Z,13.00
2023-02-24T19:16:19.310Z,13.47
2023-02-24T19:18:51.716Z,13.80
2023-02-24T19:21:20.750Z,13.50
2023-02-24T19:23:48.856Z,14.00
2023-02-24T19:26:18.146Z,15.20
2023-02-24T19:28:46.086Z,13.73
2023-02-24T19:31:15.807Z,13.50
2023-02-24T19:33:43.974Z,14.13
2023-02-24T19:36:13.646Z,14.47
2023-02-24T19:38:42.488Z,15.20
2023-02-24T19:41:10.376Z,14.17
2023-02-24T19:43:38.280Z,14.07
2023-02-24T19:46:07.351Z,14.60
2023-02-24T19:48:35.920Z,14.33
2023-02-24T19:51:09.549Z,14.57
2023-02-24T19:53:39.203Z,15.13
2023-02-24T19:56:07.896Z,14.57
2023-02-24T19:58:36.385Z,13.83
2023-02-24T20:01:10.373Z,15.80
2023-02-24T20:03:40.684Z,14.23
2023-02-24T20:06:17.556Z,15.27
2023-02-24T20:08:48.591Z,14.90
2023-02-24T20:11:18.237Z,14.73
2023-02-24T20:13:46.580Z,14.77
2023-02-24T20:16:16.317Z,14.80
2023-02-24T20:18:44.654Z,15.07
2023-02-24T20:21:13.773Z,15.97
2023-02-24T20:23:42.378Z,15.80
2023-02-24T20:26:14.016Z,15.13
2023-02-24T20:28:42.111Z,14.63
2023-02-24T20:31:11.882Z,14.33
2023-02-24T20:33:40.801Z,14.63
2023-02-24T20:36:09.924Z,14.07
2023-02-24T20:38:37.762Z,13.97
2023-02-24T20:41:06.585Z,13.53
2023-02-24T20:43:36.238Z,14.60
2023-02-24T20:46:12.296Z,14.33
2023-02-24T20:48:42.329Z,14.87
2023-02-24T20:51:13.389Z,14.43
2023-02-24T20:53:56.111Z,12.80
2023-02-24T20:56:25.882Z,13.30
2023-02-24T20:58:59.851Z,13.27
2023-02-24T21:01:28.437Z,13.43
2023-02-24T21:03:56.444Z,13.30
2023-02-24T21:06:24.981Z,12.00
2023-02-24T21:08:53.661Z,12.00
2023-02-24T21:11:22.700Z,12.90
2023-02-24T21:13:52.025Z,11.97
2023-02-24T21:16:22.751Z,12.07
2023-02-24T21:18:53.246Z,11.37
2023-02-24T21:21:22.049Z,10.83
2023-02-24T21:23:50.366Z,10.77
2023-02-24T21:26:18.827Z,10.00
2023-02-24T21:28:47.551Z,9.30
2023-02-24T21:31:18.281Z,10.50
2023-02-24T21:33:51.600Z,9.50
2023-02-24T21:36:23.377Z,8.93
2023-02-24T21:38:51.483Z,8.43
2023-02-24T21:41:20.415Z,8.93
2023-02-24T21:43:50.563Z,9.30
2023-02-24T21:46:18.406Z,8.93
2023-02-24T21:48:47.818Z,8.87
2023-02-24T21:51:15.694Z,7.30
2023-02-24T21:53:47.837Z,7.17
2023-02-24T21:56:18.053Z,4.50
2023-02-24T21:58:47.687Z,4.07
2023-02-24T22:01:17.430Z,3.70
2023-02-24T22:03:45.634Z,3.80
2023-02-24T22:06:17.722Z,3.10
2023-02-24T22:08:45.876Z,2.83
2023-02-24T22:11:15.618Z,2.70
2023-02-24T22:13:44.474Z,3.00
2023-02-24T22:16:14.752Z,3.27
2023-02-24T22:18:42.851Z,3.30
2023-02-24T22:21:12.657Z,3.33
2023-02-24T22:23:41.871Z,3.77
2023-02-24T22:26:11.620Z,3.60
2023-02-24T22:28:41.561Z,4.60
2023-02-24T22:31:12.084Z,4.63
2023-02-24T22:33:41.820Z,5.30
2023-02-24T22:36:11.648Z,5.00
2023-02-24T22:38:42.063Z,5.67
2023-02-24T22:41:12.919Z,5.37
2023-02-24T22:43:40.696Z,4.80
2023-02-24T22:46:11.973Z,5.07
2023-02-24T22:48:39.725Z,4.40
2023-02-24T22:51:10.077Z,3.93
2023-02-24T22:53:40.081Z,4.53
2023-02-24T22:56:11.407Z,4.07
2023-02-24T22:58:40.542Z,4.03
2023-02-24T23:01:10.539Z,4.10
2023-02-24T23:03:40.064Z,3.80
2023-02-24T23:06:09.790Z,3.57
2023-02-24T23:08:39.465Z,3.27
2023-02-24T23:11:12.099Z,4.90
2023-02-24T23:13:41.100Z,3.83
2023-02-24T23:16:11.274Z,3.07
2023-02-24T23:18:39.082Z,2.73
2023-02-24T23:21:10.086Z,2.13
2023-02-24T23:23:38.816Z,2.00
2023-02-24T23:26:07.783Z,2.93
2023-02-24T23:28:36.838Z,2.10
2023-02-24T23:31:04.744Z,1.80
2023-02-24T23:33:32.606Z,1.87
2023-02-24T23:36:04.359Z,2.00
2023-02-24T23:38:32.915Z,1.80
2023-02-24T23:41:01.128Z,1.60
2023-02-24T23:43:28.879Z,1.50
2023-02-24T23:45:58.149Z,1.70
2023-02-24T23:48:26.035Z,1.73
2023-02-24T23:50:57.314Z,1.50
2023-02-24T23:53:25.137Z,1.83
2023-02-24T23:55:53.021Z,1.70
2023-02-24T23:58:20.773Z,1.50
